createdAt,value
2017-11-27T00:00:18.396Z,1.7
2017-11-27T00:02:21.155Z,3.4
2017-11-27T00:04:16.917Z,6.5
2017-11-27T00:06:17.696Z,5.5
2017-11-27T00:08:21.438Z,7.7
2017-11-27T00:10:17.240Z,3.7
2017-11-27T00:12:20.983Z,7.4
2017-11-27T00:14:16.791Z,2
2017-11-27T00:16:17.518Z,6
2017-11-27T00:18:18.255Z,3.3
2017-11-27T00:20:21.017Z,3.4
2017-11-27T00:22:16.789Z,1.8
2017-11-27T00:24:21.508Z,8.9
2017-11-27T00:26:17.283Z,4.6
2017-11-27T00:28:21.018Z,4.9
2017-11-27T00:30:17.817Z,4
2017-11-27T00:32:18.540Z,4.7
2017-11-27T00:34:17.319Z,4.4
2017-11-27T00:36:18.093Z,2.8
2017-11-27T00:38:16.867Z,7
2017-11-27T00:40:17.646Z,5.8
2017-11-27T00:42:17.430Z,3.4
2017-11-27T00:44:21.182Z,4.4
2017-11-27T00:46:17.976Z,7.4
2017-11-27T00:48:17.731Z,5.2
2017-11-27T00:50:18.484Z,4.5
2017-11-27T00:52:21.234Z,3.2
2017-11-27T00:54:17.971Z,3.9
2017-11-27T00:56:17.707Z,4.1
2017-11-27T00:58:21.455Z,1.7
2017-11-27T01:00:21.237Z,3.9
2017-11-27T01:02:17.964Z,3.3
2017-11-27T01:04:17.725Z,6.7
2017-11-27T01:06:17.484Z,3.6
2017-11-27T01:08:18.215Z,4.5
2017-11-27T01:10:17.984Z,5.3
2017-11-27T01:12:20.736Z,8
2017-11-27T01:14:18.486Z,6.8
2017-11-27T01:16:17.261Z,3.2
2017-11-27T01:18:18.005Z,2.6
2017-11-27T01:20:17.778Z,8.8
2017-11-27T01:22:18.506Z,4.7
2017-11-27T01:24:21.256Z,9.5
2017-11-27T01:26:18.040Z,3
2017-11-27T01:28:17.758Z,5.4
2017-11-27T01:30:21.509Z,9.9
2017-11-27T01:32:17.315Z,4.4
2017-11-27T01:34:21.024Z,7.6
2017-11-27T01:36:17.798Z,7.2
2017-11-27T01:38:17.592Z,4.7
2017-11-27T01:40:17.328Z,5.6
2017-11-27T01:42:21.087Z,3.8
2017-11-27T01:44:16.946Z,7.4
2017-11-27T01:46:17.663Z,3.1
2017-11-27T01:48:21.427Z,4.7
2017-11-27T01:50:18.194Z,5
2017-11-27T01:52:20.920Z,5.9
2017-11-27T01:54:17.717Z,4.7
2017-11-27T01:56:17.478Z,4.5
2017-11-27T01:58:21.220Z,6.2
2017-11-27T02:00:18.035Z,6.8
2017-11-27T02:02:20.767Z,8.1
2017-11-27T02:04:21.536Z,4.6
2017-11-27T02:06:17.307Z,7.1
2017-11-27T02:08:18.059Z,4.8
2017-11-27T02:10:17.859Z,7
2017-11-27T02:12:18.572Z,4.5
2017-11-27T02:14:21.308Z,5.2
2017-11-27T02:16:18.089Z,3.1
2017-11-27T02:18:17.822Z,5.4
2017-11-27T02:20:17.605Z,5.9
2017-11-27T02:22:17.387Z,6.5
2017-11-27T02:24:18.132Z,4.5
2017-11-27T02:26:17.910Z,6.3
2017-11-27T02:28:18.660Z,3.1
2017-11-27T02:30:21.383Z,5.3
2017-11-27T02:32:17.186Z,6.7
2017-11-27T02:34:20.942Z,4.7
2017-11-27T02:36:17.679Z,4.9
2017-11-27T02:38:21.413Z,4
2017-11-27T02:40:18.198Z,6.3
2017-11-27T02:42:17.931Z,10.1
2017-11-27T02:44:20.695Z,4.7
2017-11-27T02:46:17.450Z,4.1
2017-11-27T02:48:21.190Z,6
2017-11-27T02:50:17.969Z,2.9
2017-11-27T02:52:17.698Z,4.9
2017-11-27T02:54:21.437Z,6.5
2017-11-27T02:56:17.206Z,7.3
2017-11-27T02:58:20.970Z,6.1
2017-11-27T03:00:20.712Z,5.2
2017-11-27T03:02:17.512Z,13.5
2017-11-27T03:04:18.238Z,5.4
2017-11-27T03:06:18.045Z,2.9
2017-11-27T03:08:17.791Z,3.3
2017-11-27T03:10:17.529Z,4.8
2017-11-27T03:12:21.282Z,4.3
2017-11-27T03:14:21.019Z,4.5
2017-11-27T03:16:17.798Z,6.1
2017-11-27T03:18:18.537Z,11.1
2017-11-27T03:20:21.285Z,4.6
2017-11-27T03:22:17.075Z,6.3
2017-11-27T03:24:20.805Z,4.6
2017-11-27T03:26:17.600Z,7.5
2017-11-27T03:28:21.310Z,4.2
2017-11-27T03:30:21.081Z,5.7
2017-11-27T03:32:20.863Z,6.8
2017-11-27T03:34:21.591Z,4.1
2017-11-27T03:36:17.387Z,5.5
2017-11-27T03:38:21.152Z,3.4
2017-11-27T03:40:17.952Z,6.5
2017-11-27T03:42:17.680Z,6.8
2017-11-27T03:44:17.450Z,3.6
2017-11-27T03:46:18.209Z,3.7
2017-11-27T03:48:20.947Z,5.2
2017-11-27T03:50:16.724Z,3.8
2017-11-27T03:52:21.455Z,2.9
2017-11-27T03:54:17.267Z,3.1
2017-11-27T03:56:17.025Z,6.8
2017-11-27T03:58:17.737Z,5.2
2017-11-27T04:00:18.517Z,8.5
2017-11-27T04:02:18.291Z,6.2
2017-11-27T04:04:17.987Z,5.5
2017-11-27T04:06:17.739Z,5.7
2017-11-27T04:08:21.508Z,3.1
2017-11-27T04:10:17.253Z,5.1
2017-11-27T04:12:20.985Z,3.1
2017-11-27T04:14:16.797Z,6.2
2017-11-27T04:16:17.506Z,6.7
2017-11-27T04:18:18.286Z,5.5
2017-11-27T04:20:18.005Z,2
2017-11-27T04:22:20.760Z,4.9
2017-11-27T04:24:21.524Z,5.5
2017-11-27T04:26:18.268Z,5.9
2017-11-27T04:28:21.014Z,1.7
2017-11-27T04:30:20.743Z,6.6
2017-11-27T04:32:21.565Z,2.9
2017-11-27T04:34:18.318Z,2.4
2017-11-27T04:36:17.089Z,6.9
2017-11-27T04:38:17.835Z,3.2
2017-11-27T04:40:17.558Z,3.5
2017-11-27T04:42:21.331Z,4.8
2017-11-27T04:44:18.042Z,4
2017-11-27T04:46:17.824Z,1.4
2017-11-27T04:48:21.598Z,5.5
2017-11-27T04:50:18.348Z,5.4
2017-11-27T04:52:18.109Z,8.2
2017-11-27T04:54:17.859Z,4.5
2017-11-27T04:56:17.602Z,5
2017-11-27T04:58:18.395Z,1.8
2017-11-27T05:00:18.132Z,7
2017-11-27T05:02:17.869Z,4.3
2017-11-27T05:04:18.604Z,3.5
2017-11-27T05:06:17.397Z,4.1
2017-11-27T05:08:18.119Z,3.9
2017-11-27T05:10:17.870Z,2.7
2017-11-27T05:12:18.615Z,5.9
2017-11-27T05:14:18.364Z,3
2017-11-27T05:16:17.118Z,3.1
2017-11-27T05:18:17.865Z,5.5
2017-11-27T05:20:18.594Z,5.7
2017-11-27T05:22:18.340Z,4.7
2017-11-27T05:24:18.074Z,5.1
2017-11-27T05:26:16.828Z,4.1
2017-11-27T05:28:18.563Z,6.3
2017-11-27T05:30:18.310Z,3.7
2017-11-27T05:32:18.051Z,5.6
2017-11-27T05:34:17.794Z,4.7
2017-11-27T05:36:17.558Z,6.1
2017-11-27T05:38:18.287Z,5.1
2017-11-27T05:40:18.012Z,4.2
2017-11-27T05:42:17.737Z,3.8
2017-11-27T05:44:18.456Z,3.2
2017-11-27T05:46:17.200Z,3.5
2017-11-27T05:48:17.941Z,5.7
2017-11-27T05:50:17.669Z,3.2
2017-11-27T05:52:18.423Z,7.3
2017-11-27T05:54:18.192Z,2
2017-11-27T05:56:17.909Z,3.2
2017-11-27T05:58:18.643Z,6.4
2017-11-27T06:00:18.376Z,5.1
2017-11-27T06:02:18.102Z,5.9
2017-11-27T06:04:17.846Z,5.2
2017-11-27T06:06:17.562Z,5.4
2017-11-27T06:08:18.291Z,3.3
2017-11-27T06:10:18.031Z,6.3
2017-11-27T06:12:17.757Z,3.8
2017-11-27T06:14:18.481Z,4.5
2017-11-27T06:16:17.221Z,3.6
2017-11-27T06:18:17.959Z,4.9
2017-11-27T06:20:17.685Z,4.1
2017-11-27T06:22:18.392Z,5.6
2017-11-27T06:24:18.148Z,4.3
2017-11-27T06:26:17.843Z,7.1
2017-11-27T06:28:18.565Z,4.9
2017-11-27T06:30:18.297Z,3.8
2017-11-27T06:32:18.024Z,9.9
2017-11-27T06:34:17.713Z,4.4
2017-11-27T06:36:17.444Z,6.4
2017-11-27T06:38:18.137Z,5.1
2017-11-27T06:40:17.871Z,6.2
2017-11-27T06:42:18.583Z,6.7
2017-11-27T06:44:18.295Z,6.1
2017-11-27T06:46:17.045Z,8.1
2017-11-27T06:48:17.771Z,4.7
2017-11-27T06:50:18.446Z,9.6
2017-11-27T06:52:18.195Z,5.7
2017-11-27T06:54:17.873Z,7.3
2017-11-27T06:56:17.585Z,6.9
2017-11-27T06:58:18.307Z,5.2
2017-11-27T07:00:18.012Z,10.8
2017-11-27T07:02:17.738Z,13.9
2017-11-27T07:04:18.462Z,6.4
2017-11-27T07:06:17.164Z,5.2
2017-11-27T07:08:17.881Z,4
2017-11-27T07:10:17.632Z,6.6
2017-11-27T07:12:18.339Z,5.3
2017-11-27T07:14:18.073Z,4.5
2017-11-27T07:16:17.788Z,8.8
2017-11-27T07:18:18.509Z,7.3
2017-11-27T07:20:18.207Z,4
2017-11-27T07:22:17.941Z,7.3
2017-11-27T07:24:17.648Z,8.5
2017-11-27T07:26:21.355Z,7
2017-11-27T07:28:18.102Z,5.4
2017-11-27T07:30:17.844Z,9.1
2017-11-27T07:32:18.554Z,5.9
2017-11-27T07:34:18.259Z,5.2
2017-11-27T07:36:16.998Z,6.7
2017-11-27T07:38:17.702Z,2.5
2017-11-27T07:40:17.447Z,3.6
2017-11-27T07:42:18.159Z,6.9
2017-11-27T07:44:17.900Z,2.8
2017-11-27T07:46:17.658Z,2.8
2017-11-27T07:48:18.368Z,7.7
2017-11-27T07:50:18.068Z,3.8
2017-11-27T07:52:17.811Z,3.2
2017-11-27T07:54:18.522Z,3.6
2017-11-27T07:56:18.264Z,6.1
2017-11-27T07:58:17.999Z,4.4
2017-11-27T08:00:17.723Z,6.3
2017-11-27T08:02:18.468Z,5.5
2017-11-27T08:04:18.209Z,4.1
2017-11-27T08:06:16.926Z,4.6
2017-11-27T08:08:18.641Z,5
2017-11-27T08:10:17.370Z,8.4
2017-11-27T08:12:18.080Z,4.4
2017-11-27T08:14:17.791Z,6
2017-11-27T08:16:17.502Z,5.9
2017-11-27T08:18:18.235Z,5.6
2017-11-27T08:20:17.982Z,5.5
2017-11-27T08:22:17.745Z,8.5
2017-11-27T08:24:18.494Z,2.2
2017-11-27T08:26:18.248Z,4.8
2017-11-27T08:28:17.984Z,6.4
2017-11-27T08:30:17.726Z,2.9
2017-11-27T08:32:18.501Z,5.6
2017-11-27T08:34:18.198Z,5.2
2017-11-27T08:36:16.963Z,4.6
2017-11-27T08:38:17.677Z,5.6
2017-11-27T08:40:17.446Z,6.5
2017-11-27T08:42:18.184Z,5.8
2017-11-27T08:44:17.919Z,4.6
2017-11-27T08:46:17.681Z,2.7
2017-11-27T08:48:18.435Z,12.3
2017-11-27T08:50:18.183Z,3.6
2017-11-27T08:52:17.912Z,4.4
2017-11-27T08:54:21.679Z,7.4
2017-11-27T08:56:17.508Z,4.4
2017-11-27T08:58:18.169Z,3.8
2017-11-27T09:00:17.940Z,3.4
2017-11-27T09:02:17.698Z,5.4
2017-11-27T09:04:18.439Z,4.2
2017-11-27T09:06:17.187Z,3
2017-11-27T09:08:17.931Z,5.2
2017-11-27T09:10:17.668Z,7.2
2017-11-27T09:12:18.434Z,3.8
2017-11-27T09:14:18.189Z,5.1
2017-11-27T09:16:16.981Z,5.8
2017-11-27T09:18:17.726Z,5.4
2017-11-27T09:20:18.453Z,3.8
2017-11-27T09:22:21.209Z,2.8
2017-11-27T09:24:20.992Z,6.1
2017-11-27T09:26:17.754Z,3.7
2017-11-27T09:28:18.525Z,5.7
2017-11-27T09:30:18.263Z,5.8
2017-11-27T09:32:18.036Z,4.7
2017-11-27T09:34:17.790Z,6.4
2017-11-27T09:36:17.556Z,10
2017-11-27T09:38:18.320Z,2.8
2017-11-27T09:40:18.105Z,2.6
2017-11-27T09:42:20.829Z,5
2017-11-27T09:44:17.639Z,3.9
2017-11-27T09:46:17.368Z,3
2017-11-27T09:48:18.143Z,5.8
2017-11-27T09:50:17.892Z,6.9
2017-11-27T09:52:21.664Z,3.6
2017-11-27T09:54:18.415Z,9.1
2017-11-27T09:56:18.173Z,6.8
2017-11-27T09:58:17.920Z,4.9
2017-11-27T10:00:18.722Z,5.7
2017-11-27T10:02:18.448Z,3
2017-11-27T10:04:18.202Z,2.5
2017-11-27T10:06:17.972Z,3.8
2017-11-27T10:08:17.730Z,7.1
2017-11-27T10:10:17.492Z,3.1
2017-11-27T10:12:18.274Z,6.1
2017-11-27T10:14:18.020Z,7.6
2017-11-27T10:16:17.788Z,6.2
2017-11-27T10:18:18.557Z,8.4
2017-11-27T10:20:18.331Z,2.4
2017-11-27T10:22:18.117Z,4
2017-11-27T10:24:17.887Z,5.1
2017-11-27T10:26:17.659Z,2.2
2017-11-27T10:28:18.452Z,2.5
2017-11-27T10:30:18.229Z,3.2
2017-11-27T10:32:17.970Z,1.8
2017-11-27T10:34:20.727Z,3.1
2017-11-27T10:36:17.565Z,2.4
2017-11-27T10:38:18.310Z,3.1
2017-11-27T10:40:18.089Z,2.7
2017-11-27T10:42:17.852Z,4.3
2017-11-27T10:44:18.662Z,1.2
2017-11-27T10:46:17.411Z,5.8
2017-11-27T10:48:18.171Z,3.4
2017-11-27T10:50:17.938Z,5
2017-11-27T10:52:20.700Z,1.1
2017-11-27T10:54:21.453Z,4
2017-11-27T10:56:17.268Z,4.7
2017-11-27T10:58:18.016Z,4.9
2017-11-27T11:00:17.766Z,3.5
2017-11-27T11:02:21.563Z,2.6
2017-11-27T11:04:18.304Z,2.3
2017-11-27T11:06:18.099Z,3.1
2017-11-27T11:08:17.882Z,3.7
2017-11-27T11:10:17.621Z,5.4
2017-11-27T11:12:21.377Z,2.7
2017-11-27T11:14:21.143Z,3.8
2017-11-27T11:16:17.938Z,5.6
2017-11-27T11:18:17.697Z,5.9
2017-11-27T11:20:21.467Z,7.5
2017-11-27T11:22:21.233Z,2.1
2017-11-27T11:24:21.020Z,4.8
2017-11-27T11:26:17.786Z,2.1
2017-11-27T11:28:21.550Z,3.5
2017-11-27T11:30:21.352Z,2.6
2017-11-27T11:32:21.133Z,6.2
2017-11-27T11:34:20.907Z,3.4
2017-11-27T11:36:17.688Z,4.7
2017-11-27T11:38:17.505Z,2.2
2017-11-27T11:40:21.122Z,2.8
2017-11-27T11:42:17.067Z,7.4
2017-11-27T11:44:20.846Z,3.6
2017-11-27T11:46:17.650Z,2.7
2017-11-27T11:48:21.455Z,3.4
2017-11-27T11:50:18.216Z,3.9
2017-11-27T11:52:17.986Z,4
2017-11-27T11:54:20.782Z,3.1
2017-11-27T11:56:17.583Z,4.3
2017-11-27T11:58:18.336Z,3.9
2017-11-27T12:00:21.135Z,5.1
2017-11-27T12:02:16.940Z,3.5
2017-11-27T12:04:17.720Z,3.2
2017-11-27T12:06:17.506Z,4.3
2017-11-27T12:08:21.306Z,4
2017-11-27T12:10:18.099Z,2.7
2017-11-27T12:12:20.893Z,1.5
2017-11-27T12:14:21.678Z,4.8
2017-11-27T12:16:17.527Z,2.8
2017-11-27T12:18:18.299Z,5.6
2017-11-27T12:20:18.107Z,3.6
2017-11-27T12:22:20.899Z,1.8
2017-11-27T12:24:17.700Z,2.5
2017-11-27T12:26:17.499Z,5.2
2017-11-27T12:28:21.294Z,4.5
2017-11-27T12:30:21.085Z,3.7
2017-11-27T12:32:16.953Z,2.3
2017-11-27T12:34:17.711Z,3.3
2017-11-27T12:36:17.527Z,2.3
2017-11-27T12:38:21.325Z,3.7
2017-11-27T12:40:18.161Z,5
2017-11-27T12:42:16.970Z,3.4
2017-11-27T12:44:16.812Z,4.5
2017-11-27T12:46:17.599Z,1.6
2017-11-27T12:48:21.399Z,5
2017-11-27T12:50:18.242Z,3.6
2017-11-27T12:52:21.019Z,4.2
2017-11-27T12:54:20.824Z,3
2017-11-27T12:56:17.656Z,1.7
2017-11-27T12:58:21.423Z,2.8
2017-11-27T13:00:17.225Z,5
2017-11-27T13:02:17.039Z,5.8
2017-11-27T13:04:20.823Z,0.9
2017-11-27T13:06:17.668Z,3.3
2017-11-27T13:08:21.450Z,1.3
2017-11-27T13:10:17.280Z,2.5
2017-11-27T13:12:21.064Z,2
2017-11-27T13:14:16.894Z,4.1
2017-11-27T13:16:17.680Z,4.4
2017-11-27T13:18:18.486Z,6
2017-11-27T13:20:18.268Z,1.3
2017-11-27T13:22:21.322Z,2.9
2017-11-27T13:24:17.841Z,3.5
2017-11-27T13:26:17.645Z,1.9
2017-11-27T13:28:21.410Z,0.9
2017-11-27T13:30:18.221Z,1.5
2017-11-27T13:32:21.032Z,4.4
2017-11-27T13:34:20.809Z,2.8
2017-11-27T13:36:17.584Z,2.8
2017-11-27T13:38:17.400Z,2.5
2017-11-27T13:40:17.191Z,1.6
2017-11-27T13:42:21.000Z,3
2017-11-27T13:44:17.765Z,1.9
2017-11-27T13:46:17.522Z,0.8
2017-11-27T13:48:18.310Z,3
2017-11-27T13:50:18.061Z,2.7
2017-11-27T13:52:16.891Z,4.9
2017-11-27T13:54:18.661Z,3
2017-11-27T13:56:17.413Z,2
2017-11-27T13:58:21.176Z,2.2
2017-11-27T14:00:17.965Z,4.6
2017-11-27T14:02:17.736Z,2.4
2017-11-27T14:04:21.492Z,2.8
2017-11-27T14:06:17.293Z,2.6
2017-11-27T14:08:18.050Z,2.2
2017-11-27T14:10:17.823Z,2
2017-11-27T14:12:18.581Z,2.1
2017-11-27T14:14:18.336Z,2.2
2017-11-27T14:16:18.124Z,3.5
2017-11-27T14:18:17.899Z,3.9
2017-11-27T14:20:18.656Z,1.3
2017-11-27T14:22:21.413Z,1.7
2017-11-27T14:24:21.170Z,1.4
2017-11-27T14:26:17.980Z,2.9
2017-11-27T14:28:17.747Z,4.2
2017-11-27T14:30:18.530Z,1.3
2017-11-27T14:32:21.284Z,7.5
2017-11-27T14:34:21.044Z,3.5
2017-11-27T14:36:17.817Z,2.3
2017-11-27T14:38:21.596Z,2.3
2017-11-27T14:40:17.360Z,0.9
2017-11-27T14:42:18.150Z,3.4
2017-11-27T14:44:17.910Z,0.8
2017-11-27T14:46:17.676Z,3.3
2017-11-27T14:48:18.438Z,1.8
2017-11-27T14:50:18.172Z,1.3
2017-11-27T14:52:20.933Z,1.1
2017-11-27T14:54:20.700Z,1.9
2017-11-27T14:56:17.485Z,0.7
2017-11-27T14:58:18.266Z,1.6
2017-11-27T15:00:18.015Z,1.9
2017-11-27T15:02:17.775Z,2.7
2017-11-27T15:04:18.540Z,4.4
2017-11-27T15:06:17.336Z,1.4
2017-11-27T15:08:18.088Z,2.9
2017-11-27T15:10:17.847Z,2.6
2017-11-27T15:12:18.603Z,2
2017-11-27T15:14:18.355Z,2.1
2017-11-27T15:16:18.150Z,2.1
2017-11-27T15:18:17.916Z,0.5
2017-11-27T15:20:18.667Z,2.1
2017-11-27T15:22:18.424Z,13
2017-11-27T15:24:18.190Z,3.3
2017-11-27T15:26:16.959Z,1.4
2017-11-27T15:28:17.742Z,1.9
2017-11-27T15:30:18.504Z,1
2017-11-27T15:32:18.235Z,1.8
2017-11-27T15:34:20.987Z,3.9
2017-11-27T15:36:17.787Z,1.2
2017-11-27T15:38:18.562Z,1.9
2017-11-27T15:40:17.295Z,0.8
2017-11-27T15:42:18.059Z,1.3
2017-11-27T15:44:17.815Z,1.2
2017-11-27T15:46:17.600Z,3.3
2017-11-27T15:48:18.337Z,4.2
2017-11-27T15:50:18.104Z,2.4
2017-11-27T15:52:17.885Z,1.8
2017-11-27T15:54:18.604Z,1.2
2017-11-27T15:56:17.363Z,3
2017-11-27T15:58:18.124Z,1.2
2017-11-27T16:00:17.881Z,0.8
2017-11-27T16:02:18.654Z,1.2
2017-11-27T16:04:18.384Z,2.3
2017-11-27T16:06:17.113Z,1.9
2017-11-27T16:08:20.878Z,2.3
2017-11-27T16:10:17.632Z,0.9
2017-11-27T16:12:18.366Z,3.3
2017-11-27T16:14:18.107Z,1.2
2017-11-27T16:16:20.839Z,1.4
2017-11-27T16:18:18.653Z,1.4
2017-11-27T16:20:18.365Z,1.2
2017-11-27T16:22:18.116Z,0.9
2017-11-27T16:24:17.888Z,2.7
2017-11-27T16:26:17.593Z,1.6
2017-11-27T16:28:18.333Z,1.7
2017-11-27T16:30:18.120Z,0.7
2017-11-27T16:32:17.843Z,1.4
2017-11-27T16:34:18.617Z,1.4
2017-11-27T16:36:17.358Z,1.7
2017-11-27T16:38:18.137Z,3.4
2017-11-27T16:40:17.863Z,3.8
2017-11-27T16:42:18.649Z,1.1
2017-11-27T16:44:18.391Z,2.2
2017-11-27T16:46:17.139Z,0.8
2017-11-27T16:48:17.894Z,1.7
2017-11-27T16:50:18.690Z,0.6
2017-11-27T16:52:18.458Z,2.5
2017-11-27T16:54:18.208Z,1
2017-11-27T16:56:16.985Z,3.1
2017-11-27T16:58:17.732Z,1.1
2017-11-27T17:00:18.482Z,0.8
2017-11-27T17:02:21.286Z,1.7
2017-11-27T17:04:18.012Z,2.5
2017-11-27T17:06:16.780Z,0.7
2017-11-27T17:08:18.539Z,1.6
2017-11-27T17:10:17.304Z,1
2017-11-27T17:12:18.042Z,2.4
2017-11-27T17:14:17.795Z,1.7
2017-11-27T17:16:17.548Z,0.7
2017-11-27T17:18:18.281Z,0.6
2017-11-27T17:20:18.040Z,1.1
2017-11-27T17:22:17.777Z,1.3
2017-11-27T17:24:18.568Z,1.7
2017-11-27T17:26:17.283Z,1
2017-11-27T17:28:21.059Z,1.2
2017-11-27T17:30:17.810Z,0.8
2017-11-27T17:32:18.562Z,0.6
2017-11-27T17:34:18.320Z,4.1
2017-11-27T17:36:17.130Z,1.1
2017-11-27T17:38:17.800Z,1.1
2017-11-27T17:40:17.532Z,0.8
2017-11-27T17:42:18.321Z,3.1
2017-11-27T17:44:18.067Z,1.3
2017-11-27T17:46:17.822Z,0.7
2017-11-27T17:48:18.595Z,2.1
2017-11-27T17:50:18.362Z,2.1
2017-11-27T17:52:18.091Z,1
2017-11-27T17:54:17.836Z,2.4
2017-11-27T17:56:17.582Z,4.6
2017-11-27T17:58:18.338Z,1
2017-11-27T18:00:18.106Z,0.7
2017-11-27T18:02:17.861Z,1.8
2017-11-27T18:04:18.638Z,2.5
2017-11-27T18:06:17.390Z,0.8
2017-11-27T18:08:18.201Z,2.3
2017-11-27T18:10:17.948Z,1.3
2017-11-27T18:12:17.698Z,1
2017-11-27T18:14:18.471Z,0.9
2017-11-27T18:16:18.251Z,0.6
2017-11-27T18:18:18.030Z,1.1
2017-11-27T18:20:17.753Z,1.1
2017-11-27T18:22:21.508Z,1.3
2017-11-27T18:24:18.291Z,1.5
2017-11-27T18:26:17.036Z,0.6
2017-11-27T18:28:16.793Z,1.9
2017-11-27T18:30:21.540Z,0.5
2017-11-27T18:32:21.364Z,0.5
2017-11-27T18:34:18.104Z,0.6
2017-11-27T18:36:17.895Z,1.1
2017-11-27T18:38:18.678Z,0.5
2017-11-27T18:40:17.444Z,2
2017-11-27T18:42:18.195Z,0.5
2017-11-27T18:44:19.939Z,0.6
2017-11-27T18:46:17.717Z,0.9
2017-11-27T18:48:18.489Z,0.5
2017-11-27T18:50:18.246Z,0.5
2017-11-27T18:52:21.016Z,1.5
2017-11-27T18:54:20.777Z,0.6
2017-11-27T18:56:17.544Z,2.5
2017-11-27T18:58:18.316Z,0.3
2017-11-27T19:00:18.080Z,0.6
2017-11-27T19:02:17.843Z,3.1
2017-11-27T19:04:18.608Z,0.3
2017-11-27T19:06:17.375Z,0.4
2017-11-27T19:08:18.144Z,0.3
2017-11-27T19:10:17.931Z,1.4
2017-11-27T19:12:17.690Z,1.4
2017-11-27T19:14:18.423Z,0.4
2017-11-27T19:16:17.274Z,0.3
2017-11-27T19:18:17.968Z,1.2
2017-11-27T19:20:17.910Z,0.7
2017-11-27T19:22:18.475Z,0.5
2017-11-27T19:24:18.262Z,0.4
2017-11-27T19:26:17.018Z,0.3
2017-11-27T19:28:17.746Z,0.5
2017-11-27T19:30:18.530Z,0.4
2017-11-27T19:32:18.269Z,1.9
2017-11-27T19:34:18.064Z,0.7
2017-11-27T19:36:17.828Z,1.5
2017-11-27T19:38:18.586Z,0.8
2017-11-27T19:40:17.348Z,0.3
2017-11-27T19:42:18.112Z,0.5
2017-11-27T19:44:20.895Z,0.3
2017-11-27T19:46:17.856Z,1.5
2017-11-27T19:48:18.445Z,0.3
2017-11-27T19:50:21.234Z,0.9
2017-11-27T19:52:18.062Z,0.7
2017-11-27T19:54:17.813Z,0.3
2017-11-27T19:56:17.606Z,0.7
2017-11-27T19:58:18.374Z,0.4
2017-11-27T20:00:18.143Z,0.4
2017-11-27T20:02:17.906Z,0.4
2017-11-27T20:04:18.669Z,0.3
2017-11-27T20:06:17.407Z,0.2
2017-11-27T20:08:21.171Z,0.8
2017-11-27T20:10:18.000Z,0.2
2017-11-27T20:12:17.738Z,0.2
2017-11-27T20:14:18.516Z,1.1
2017-11-27T20:16:17.302Z,0.8
2017-11-27T20:18:18.036Z,0.2
2017-11-27T20:20:17.835Z,0.3
2017-11-27T20:22:18.593Z,0.5
2017-11-27T20:24:18.348Z,0.9
2017-11-27T20:26:18.147Z,0.3
2017-11-27T20:28:20.912Z,0.3
2017-11-27T20:30:18.688Z,1
2017-11-27T20:32:21.487Z,0.4
2017-11-27T20:34:21.284Z,0.4
2017-11-27T20:36:17.063Z,0.3
2017-11-27T20:38:20.833Z,0.3
2017-11-27T20:40:17.637Z,0.8
2017-11-27T20:42:21.432Z,0.3
2017-11-27T20:44:18.221Z,4.5
2017-11-27T20:46:16.995Z,0.2
2017-11-27T20:48:17.725Z,0.3
2017-11-27T20:50:21.522Z,0.3
2017-11-27T20:52:18.292Z,0.3
2017-11-27T20:54:18.073Z,0.4
2017-11-27T20:56:17.857Z,1.4
2017-11-27T20:58:18.644Z,0.4
2017-11-27T21:00:18.393Z,0.4
2017-11-27T21:02:21.153Z,0.3
2017-11-27T21:04:16.972Z,0.5
2017-11-27T21:06:17.774Z,0.3
2017-11-27T21:08:18.514Z,0.3
2017-11-27T21:10:17.313Z,0.3
2017-11-27T21:12:21.093Z,0.2
2017-11-27T21:14:20.842Z,0.4
2017-11-27T21:16:17.644Z,0.2
2017-11-27T21:18:18.421Z,0.3
2017-11-27T21:20:21.205Z,0.2
2017-11-27T21:22:17.001Z,0.2
2017-11-27T21:24:16.813Z,0.5
2017-11-27T21:26:17.587Z,2.9
2017-11-27T21:28:21.406Z,0.5
2017-11-27T21:30:18.205Z,0.1
2017-11-27T21:32:17.971Z,0.4
2017-11-27T21:34:17.757Z,2.1
2017-11-27T21:36:17.543Z,0.3
2017-11-27T21:38:18.326Z,0.3
2017-11-27T21:40:18.075Z,0.8
2017-11-27T21:42:20.815Z,0.2
2017-11-27T21:44:17.658Z,0.2
2017-11-27T21:46:17.451Z,0.3
2017-11-27T21:48:21.228Z,0.6
2017-11-27T21:50:20.994Z,0.2
2017-11-27T21:52:16.793Z,0.2
2017-11-27T21:54:17.588Z,1.2
2017-11-27T21:56:18.396Z,0.4
2017-11-27T21:58:21.180Z,0.2
2017-11-27T22:00:21.023Z,0.1
2017-11-27T22:02:17.795Z,0.2
2017-11-27T22:04:18.564Z,0.2
2017-11-27T22:06:17.396Z,0.2
2017-11-27T22:08:18.152Z,0.2
2017-11-27T22:10:17.927Z,0.1
2017-11-27T22:12:16.735Z,0.2
2017-11-27T22:14:21.480Z,0.2
2017-11-27T22:16:17.297Z,0.2
2017-11-27T22:18:18.118Z,0.6
2017-11-27T22:20:17.870Z,0.4
2017-11-27T22:22:17.696Z,0.2
2017-11-27T22:24:21.497Z,0.3
2017-11-27T22:26:17.280Z,0.1
2017-11-27T22:28:21.076Z,0.2
2017-11-27T22:30:17.855Z,0.3
2017-11-27T22:32:21.624Z,0.5
2017-11-27T22:34:17.457Z,0.2
2017-11-27T22:36:18.216Z,0.3
2017-11-27T22:38:21.013Z,0.1
2017-11-27T22:40:17.828Z,0.4
2017-11-27T22:42:18.589Z,0.3
2017-11-27T22:44:17.419Z,0.2
2017-11-27T22:46:18.238Z,0.3
2017-11-27T22:48:18.008Z,1.7
2017-11-27T22:50:16.820Z,1
2017-11-27T22:52:17.624Z,0.2
2017-11-27T22:54:17.433Z,0.1
2017-11-27T22:56:18.232Z,0.2
2017-11-27T22:58:17.058Z,0.3
2017-11-27T23:00:16.894Z,0.3
2017-11-27T23:02:21.623Z,0.2
2017-11-27T23:04:17.456Z,0.2
2017-11-27T23:06:17.272Z,0.3
2017-11-27T23:08:21.043Z,0.3
2017-11-27T23:10:17.867Z,0.3
2017-11-27T23:12:21.655Z,0.2
2017-11-27T23:14:21.445Z,0.2
2017-11-27T23:16:17.264Z,0.3
2017-11-27T23:18:18.018Z,0.2
2017-11-27T23:20:17.822Z,0.3
2017-11-27T23:22:21.607Z,1.4
2017-11-27T23:24:18.410Z,0.2
2017-11-27T23:26:18.324Z,0.2
2017-11-27T23:28:18.009Z,0.2
2017-11-27T23:30:20.811Z,0.2
2017-11-27T23:32:21.616Z,0.2
2017-11-27T23:34:18.417Z,0.5
2017-11-27T23:36:17.208Z,0.2
2017-11-27T23:38:20.973Z,1.5
2017-11-27T23:40:17.786Z,0.3
2017-11-27T23:42:21.565Z,1.7
2017-11-27T23:44:21.378Z,0.2
2017-11-27T23:46:18.161Z,0.2
2017-11-27T23:48:17.974Z,0.3
2017-11-27T23:50:17.772Z,0.2
2017-11-27T23:52:18.542Z,0.1
2017-11-27T23:54:17.341Z,0.2
2017-11-27T23:56:17.150Z,0.1
2017-11-27T23:58:20.953Z,0.3
